Decoded Metar for SBPA (PORTO ALEGRE in BRAZIL) (IATA:POA) | Meteo·Mobile Aviation Weather
aviador You're here:

SBPA Decoded Metar

PORTO ALEGRE in BRAZIL
Report Time2019-02-17 19:00:00
UTC Time2019-02-17 19:37:13
Flight Rules vfr VFR
Wind100° at 15 kt
W.Decomp.*RWY 11: 14.9 kt HW 1.6 kt RCW
W.Rank100° ranks 1
Current wind is above 100° avg. (8.0)
Visibility9999 m
Phenomena:N/A
Clouds:Broken 040 Hf
Expected CloudBase > 3,600 ft AGL from Temp-Dew spread
Ceiling4,000 ft
Temp28°C (ISA +13)
Dew Point19°C (58% RH)
Heat Index29.2°C
AAT25.8°C
QNH1013 hPa
Density Alt1,798 ft
Elevation10 ft
Report Wrong Elevation
Raw Report
METAR SBPA 171900Z 10015KT 9999 BKN040 28/19 Q1013=

Extra information for SBPA:More info

Metar Taf Metar & Taf Last 4 Metars F.Rules Stats Wind Profile Meteogram Temp Stats Airport Information Weather charts Add Link Nearby VenuesMetar ALERT Operation Metar Decoded Social comments